Time;durP1;ratioP1;P1;durP2;ratioP2;P2;SDS_P1;SDS_P2;PMS_P1;PMS_P2;Temp;Humidity;BMP_temperature;BMP_pressure;BME280_temperature;BME280_humidity;BME280_pressure;Samples;Min_cycle;Max_cycle;Signal;HPM_P1;HPM_P2
2022/06/09 00:01:36;;;;;;;22.58;17.15;;;25.80;99.90;;;;;;5051651;28;20259;-65
2022/06/09 00:04:04;;;;;;;;;;;25.90;99.90;;;;;;5053524;28;20114;-65
2022/06/09 00:06:36;;;;;;;30.25;19.25;;;25.90;99.90;;;;;;5052334;28;19909;-63
2022/06/09 00:09:05;;;;;;;27.42;18.27;;;26.00;99.90;;;;;;5053162;28;20095;-65
2022/06/09 00:11:36;;;;;;;25.73;16.02;;;26.00;99.90;;;;;;5053095;28;20025;-65
2022/06/09 00:14:05;;;;;;;19.47;16.20;;;26.00;99.90;;;;;;5052923;28;20029;-65
2022/06/09 00:16:32;;;;;;;19.77;15.70;;;26.00;99.90;;;;;;5052537;28;20033;-65
2022/06/09 00:18:59;;;;;;;18.38;14.52;;;26.10;99.90;;;;;;5052368;28;20277;-66
2022/06/09 00:21:25;;;;;;;27.38;15.65;;;26.00;99.90;;;;;;5052811;28;20108;-65
2022/06/09 00:23:52;;;;;;;29.13;17.23;;;26.10;99.90;;;;;;5052875;28;20025;-65
2022/06/09 00:26:19;;;;;;;32.10;19.13;;;26.10;99.90;;;;;;5052942;28;20462;-65
2022/06/09 00:28:45;;;;;;;29.33;20.55;;;26.10;99.90;;;;;;5052705;28;20108;-65
2022/06/09 00:31:12;;;;;;;29.27;21.40;;;26.10;99.90;;;;;;5052816;28;20029;-65
2022/06/09 00:33:39;;;;;;;40.65;20.83;;;26.10;99.90;;;;;;5052109;28;20059;-65
2022/06/09 00:36:07;;;;;;;26.58;21.50;;;26.20;99.90;;;;;;5052747;28;20033;-64
2022/06/09 00:38:34;;;;;;;36.55;19.95;;;26.20;99.90;;;;;;5050713;28;20047;-65
2022/06/09 00:41:02;;;;;;;31.95;18.73;;;26.30;99.90;;;;;;5047691;28;20029;-64
2022/06/09 00:43:30;;;;;;;21.63;18.55;;;26.40;99.90;;;;;;5052314;28;20021;-64
2022/06/09 00:45:57;;;;;;;26.13;18.23;;;26.50;99.90;;;;;;5052368;28;20049;-65
2022/06/09 00:48:26;;;;;;;27.75;17.50;;;26.60;99.90;;;;;;5047241;28;20159;-65
2022/06/09 00:51:00;;;;;;;26.80;18.05;;;26.60;99.90;;;;;;5040634;28;20112;-64
2022/06/09 00:53:32;;;;;;;27.15;17.27;;;26.70;99.90;;;;;;5032929;28;20064;-64
2022/06/09 00:56:01;;;;;;;33.53;18.63;;;26.80;99.90;;;;;;5035913;28;20113;-64
2022/06/09 00:58:32;;;;;;;27.20;17.55;;;26.80;99.90;;;;;;5036626;28;20040;-64
2022/06/09 01:01:02;;;;;;;35.03;17.63;;;26.90;99.90;;;;;;5052970;28;20078;-65
2022/06/09 01:03:52;;;;;;;38.92;17.98;;;27.00;99.90;;;;;;5056399;28;20045;-64
2022/06/09 01:06:25;;;;;;;33.25;16.85;;;26.90;99.90;;;;;;5054982;28;20037;-63
2022/06/09 01:09:05;;;;;;;27.50;19.25;;;27.00;99.90;;;;;;5056381;28;20091;-64
2022/06/09 01:11:32;;;;;;;32.72;18.88;;;27.00;99.90;;;;;;5052392;28;20029;-66
2022/06/09 01:14:00;;;;;;;24.27;17.42;;;27.00;99.90;;;;;;5047722;28;20473;-68
2022/06/09 01:16:51;;;;;;;19.52;15.25;;;27.10;99.90;;;;;;5045707;28;20032;-69
2022/06/09 01:19:38;;;;;;;24.88;15.48;;;27.20;99.90;;;;;;5044221;28;20429;-66
2022/06/09 01:22:32;;;;;;;20.15;15.15;;;27.30;99.90;;;;;;5045036;28;20095;-66
2022/06/09 01:25:10;;;;;;;23.73;17.63;;;27.30;99.90;;;;;;5045911;28;20018;-68
2022/06/09 01:28:05;;;;;;;26.35;18.55;;;27.40;99.90;;;;;;5045289;28;20117;-69
2022/06/09 01:30:41;;;;;;;33.50;22.80;;;27.50;99.90;;;;;;5048316;28;20024;-66
2022/06/09 01:33:13;;;;;;;37.67;22.00;;;27.50;99.90;;;;;;5050495;28;20032;-66
2022/06/09 01:35:50;;;;;;;29.92;18.95;;;27.60;99.90;;;;;;5055434;28;20132;-67
2022/06/09 01:38:17;;;;;;;25.90;16.77;;;27.70;99.90;;;;;;5046500;28;20017;-67
2022/06/09 01:40:44;;;;;;;20.52;15.27;;;27.80;99.90;;;;;;5049014;28;20112;-66
2022/06/09 01:43:11;;;;;;;20.40;11.63;;;27.90;99.90;;;;;;5045300;28;20029;-66
2022/06/09 01:46:05;;;;;;;14.80;10.68;;;28.00;99.90;;;;;;5054911;28;20396;-67
2022/06/09 01:48:33;;;;;;;20.40;10.80;;;28.10;99.90;;;;;;5047808;28;20390;-68
2022/06/09 01:51:08;;;;;;;15.02;10.68;;;28.20;99.90;;;;;;5047517;28;20040;-68
2022/06/09 01:53:44;;;;;;;18.60;11.55;;;28.10;99.90;;;;;;5030627;28;20029;-67
2022/06/09 01:56:30;;;;;;;22.17;11.43;;;28.10;99.90;;;;;;5044989;28;20032;-68
2022/06/09 01:59:07;;;;;;;18.17;11.00;;;28.20;99.90;;;;;;5011711;28;20038;-68
2022/06/09 02:01:38;;;;;;;18.08;10.48;;;28.30;99.90;;;;;;5045371;28;20515;-68
2022/06/09 02:04:11;;;;;;;11.30;8.88;;;28.30;99.90;;;;;;5045139;28;20025;-68
2022/06/09 02:06:38;;;;;;;20.40;10.88;;;28.30;99.90;;;;;;5038504;28;20026;-67
2022/06/09 02:09:05;;;;;;;17.15;9.77;;;28.40;99.90;;;;;;5050442;28;20017;-66
2022/06/09 02:11:32;;;;;;;14.80;8.52;;;28.50;99.90;;;;;;5045043;28;20045;-67
2022/06/09 02:13:59;;;;;;;19.10;8.95;;;28.60;99.90;;;;;;5048868;28;20037;-67
2022/06/09 02:16:26;;;;;;;14.30;8.07;;;28.80;99.90;;;;;;5043727;28;20029;-70
2022/06/09 02:18:56;;;;;;;17.33;9.88;;;28.90;99.90;;;;;;5048156;28;20677;-67
2022/06/09 02:21:27;;;;;;;15.85;9.43;;;28.90;99.90;;;;;;5045597;28;20382;-66
2022/06/09 02:23:54;;;;;;;17.83;8.95;;;28.80;99.90;;;;;;5044016;28;20021;-67
2022/06/09 02:26:22;;;;;;;15.75;9.32;;;28.80;99.90;;;;;;5045750;28;20402;-66
2022/06/09 02:28:49;;;;;;;13.73;8.80;;;28.80;99.90;;;;;;5045623;28;20017;-67
2022/06/09 02:31:18;;;;;;;13.98;9.80;;;28.90;99.90;;;;;;5050143;28;20082;-65
2022/06/09 02:33:45;;;;;;;14.23;9.25;;;28.90;99.90;;;;;;5054650;28;20086;-65
2022/06/09 02:36:11;;;;;;;13.65;8.85;;;29.00;99.90;;;;;;5053071;28;20024;-64
2022/06/09 02:38:38;;;;;;;14.13;9.63;;;29.10;99.90;;;;;;5049275;28;20040;-63
2022/06/09 02:41:06;;;;;;;17.85;10.00;;;29.00;99.90;;;;;;5045630;28;20040;-61
2022/06/09 02:43:33;;;;;;;13.82;9.10;;;29.00;99.90;;;;;;5042891;28;20470;-65
2022/06/09 02:46:01;;;;;;;13.23;9.52;;;29.00;99.90;;;;;;5049982;28;20044;-66
2022/06/09 02:48:28;;;;;;;13.45;9.23;;;29.00;99.90;;;;;;5045828;28;20036;-65
2022/06/09 02:50:55;;;;;;;16.27;8.60;;;29.00;99.90;;;;;;5040089;28;20393;-66
2022/06/09 02:53:24;;;;;;;17.10;8.85;;;29.10;99.90;;;;;;5044683;28;20116;-67
2022/06/09 02:55:51;;;;;;;14.38;8.90;;;29.10;99.90;;;;;;5045435;28;20039;-67
2022/06/09 02:58:17;;;;;;;17.83;9.45;;;29.20;99.90;;;;;;5043509;28;20025;-66
2022/06/09 03:00:44;;;;;;;13.57;8.68;;;29.20;99.90;;;;;;5043867;28;20069;-65
2022/06/09 03:03:14;;;;;;;15.30;8.10;;;29.20;99.90;;;;;;5045303;28;20104;-66
2022/06/09 03:05:41;;;;;;;18.27;9.10;;;29.10;99.90;;;;;;5052107;28;20048;-66
2022/06/09 03:08:08;;;;;;;15.95;8.32;;;29.20;99.90;;;;;;5038393;28;20031;-65
2022/06/09 03:10:37;;;;;;;18.05;9.27;;;29.10;99.90;;;;;;5042411;28;20032;-66
2022/06/09 03:13:04;;;;;;;18.38;9.23;;;29.10;99.90;;;;;;5043041;28;20250;-67
2022/06/09 03:15:31;;;;;;;13.95;8.10;;;29.10;99.90;;;;;;5049182;28;20028;-67
2022/06/09 03:17:58;;;;;;;14.75;7.15;;;29.20;99.90;;;;;;5049123;28;20030;-69
2022/06/09 03:20:28;;;;;;;13.65;8.05;;;29.10;99.90;;;;;;5043912;28;20389;-69
2022/06/09 03:22:55;;;;;;;10.60;7.45;;;29.10;99.90;;;;;;5045955;28;20029;-68
2022/06/09 03:25:22;;;;;;;10.95;7.05;;;29.00;99.90;;;;;;5045572;28;20040;-66
2022/06/09 03:27:49;;;;;;;12.18;6.97;;;29.10;99.90;;;;;;5046379;28;20033;-66
2022/06/09 03:30:16;;;;;;;9.05;6.45;;;29.00;99.90;;;;;;5049601;28;20024;-67
2022/06/09 03:32:43;;;;;;;21.52;9.32;;;29.10;99.90;;;;;;5044710;28;20036;-68
2022/06/09 03:35:11;;;;;;;15.68;7.30;;;29.10;99.90;;;;;;5035713;28;20025;-68
2022/06/09 03:37:38;;;;;;;13.63;7.20;;;29.10;99.90;;;;;;5046755;28;20107;-69
2022/06/09 03:40:06;;;;;;;9.07;6.30;;;29.10;99.90;;;;;;5044045;28;20029;-67
2022/06/09 03:42:32;;;;;;;11.88;7.32;;;29.10;99.90;;;;;;5046799;28;20021;-67
2022/06/09 03:44:59;;;;;;;14.98;7.55;;;29.20;99.90;;;;;;5049583;28;20021;-66
2022/06/09 03:47:26;;;;;;;10.63;6.60;;;29.30;99.90;;;;;;5048306;28;20040;-66
2022/06/09 03:49:53;;;;;;;14.57;7.95;;;29.40;99.90;;;;;;5043684;28;20018;-68
2022/06/09 03:52:19;;;;;;;10.30;7.20;;;29.40;99.90;;;;;;5039140;28;20053;-67
2022/06/09 03:54:46;;;;;;;9.45;6.40;;;29.40;99.90;;;;;;5049973;28;20039;-66
2022/06/09 03:57:13;;;;;;;10.00;5.75;;;29.50;99.90;;;;;;5040356;28;20064;-67
2022/06/09 03:59:39;;;;;;;11.77;5.88;;;29.60;99.90;;;;;;5043345;28;20029;-67
2022/06/09 04:02:06;;;;;;;11.57;6.20;;;29.70;99.90;;;;;;5047186;28;20056;-67
2022/06/09 04:04:33;;;;;;;12.50;5.88;;;29.80;99.90;;;;;;5043923;28;20223;-66
2022/06/09 04:07:00;;;;;;;10.70;5.40;;;29.80;99.90;;;;;;5043831;28;20096;-66
2022/06/09 04:09:26;;;;;;;10.18;6.00;;;30.00;99.90;;;;;;5044111;28;20025;-68
2022/06/09 04:11:53;;;;;;;10.18;5.43;;;30.00;99.90;;;;;;5045047;28;20378;-68
2022/06/09 04:14:20;;;;;;;12.13;6.20;;;30.00;99.90;;;;;;5048266;28;20044;-67
2022/06/09 04:16:47;;;;;;;8.52;5.63;;;30.10;99.90;;;;;;5052971;28;20492;-67
2022/06/09 04:19:16;;;;;;;12.48;6.00;;;30.30;99.90;;;;;;5049290;28;20037;-67
2022/06/09 04:21:44;;;;;;;8.85;5.60;;;30.30;99.90;;;;;;5052919;28;20021;-67
2022/06/09 04:24:12;;;;;;;8.88;6.55;;;30.30;99.90;;;;;;5049673;28;20061;-67
2022/06/09 04:26:40;;;;;;;8.35;4.80;;;30.20;99.90;;;;;;5051841;28;20075;-67
2022/06/09 04:29:11;;;;;;;13.45;8.57;;;30.20;99.90;;;;;;5049601;28;20478;-67
2022/06/09 04:31:39;;;;;;;19.83;6.55;;;30.10;99.90;;;;;;5053645;28;20036;-68
2022/06/09 04:34:06;;;;;;;7.82;5.13;;;30.00;99.90;;;;;;5049707;28;20461;-68
2022/06/09 04:36:34;;;;;;;10.63;5.15;;;30.00;99.90;;;;;;5053277;28;20112;-66
2022/06/09 04:39:02;;;;;;;8.10;4.88;;;30.00;99.90;;;;;;5051219;28;20078;-68
2022/06/09 04:41:28;;;;;;;10.48;4.63;;;30.00;99.90;;;;;;5052558;28;20037;-69
2022/06/09 04:43:57;;;;;;;8.43;4.70;;;29.90;99.90;;;;;;5052057;28;20021;-71
2022/06/09 04:46:24;;;;;;;7.10;5.13;;;29.90;99.90;;;;;;5053667;28;20041;-71
2022/06/09 04:48:51;;;;;;;8.55;4.80;;;29.90;99.90;;;;;;5049494;28;20174;-67
2022/06/09 04:51:20;;;;;;;8.40;5.82;;;29.90;99.90;;;;;;5052158;28;20427;-67
2022/06/09 04:53:48;;;;;;;8.15;5.25;;;29.90;99.90;;;;;;5048935;28;20026;-67
2022/06/09 04:56:15;;;;;;;6.28;5.00;;;29.90;99.90;;;;;;5045938;28;20021;-68
2022/06/09 04:58:43;;;;;;;7.13;4.43;;;29.90;99.90;;;;;;5048003;28;20381;-66
2022/06/09 05:01:17;;;;;;;11.02;5.70;;;29.80;99.90;;;;;;5046146;28;20037;-67
2022/06/09 05:03:45;;;;;;;10.60;5.03;;;29.90;99.90;;;;;;5048491;28;20040;-70
2022/06/09 05:06:11;;;;;;;10.27;5.78;;;29.90;99.90;;;;;;5047981;28;20474;-67
2022/06/09 05:08:40;;;;;;;12.57;6.07;;;29.80;99.90;;;;;;5048976;28;20025;-67
2022/06/09 05:11:07;;;;;;;10.80;5.80;;;29.90;99.90;;;;;;5048348;28;20531;-67
2022/06/09 05:13:34;;;;;;;7.53;5.05;;;29.90;99.90;;;;;;5046126;28;20056;-67
2022/06/09 05:16:00;;;;;;;8.63;5.20;;;29.90;99.90;;;;;;5046550;28;20029;-68
2022/06/09 05:18:30;;;;;;;16.27;7.18;;;29.90;99.90;;;;;;5045756;28;20679;-66
2022/06/09 05:20:58;;;;;;;13.88;10.15;;;29.90;99.90;;;;;;5050230;28;20036;-65
2022/06/09 05:23:26;;;;;;;10.43;8.02;;;29.90;99.90;;;;;;5049152;28;20025;-65
2022/06/09 05:25:55;;;;;;;8.02;5.47;;;29.90;99.90;;;;;;5050790;28;20032;-64
2022/06/09 05:28:24;;;;;;;6.90;4.25;;;29.90;99.90;;;;;;5052552;28;20029;-65
2022/06/09 05:30:51;;;;;;;5.97;4.60;;;29.90;99.90;;;;;;5055331;28;20375;-65
2022/06/09 05:33:19;;;;;;;10.27;5.28;;;29.90;99.90;;;;;;5053008;28;20028;-64
2022/06/09 05:35:46;;;;;;;6.75;4.93;;;29.90;99.90;;;;;;5049815;28;20137;-64
2022/06/09 05:46:35;;;;;;;9.77;5.78;;;29.70;99.90;;;;;;5051127;28;20476;-65
2022/06/09 05:49:03;;;;;;;8.88;5.50;;;29.70;99.90;;;;;;5054670;28;20060;-65
2022/06/09 05:51:31;;;;;;;9.43;6.20;;;29.60;99.90;;;;;;5055048;28;20377;-65
2022/06/09 05:53:58;;;;;;;10.23;6.18;;;29.60;99.90;;;;;;5055614;28;20053;-64
2022/06/09 05:56:25;;;;;;;8.63;5.40;;;29.50;99.90;;;;;;5054485;28;20904;-65
2022/06/09 05:58:52;;;;;;;9.32;5.15;;;29.50;99.90;;;;;;5053251;28;20020;-65
2022/06/09 06:01:19;;;;;;;14.43;9.60;;;29.50;99.90;;;;;;5053903;28;20337;-66
2022/06/09 06:03:46;;;;;;;11.75;7.88;;;29.40;99.90;;;;;;5053714;28;20024;-65
2022/06/09 06:08:59;;;;;;;34.47;18.95;;;29.00;99.90;;;;;;5052938;28;20029;-64
2022/06/09 06:11:26;;;;;;;24.02;12.20;;;28.80;99.90;;;;;;5052860;28;20103;-64
2022/06/09 06:13:54;;;;;;;20.38;12.07;;;28.70;99.90;;;;;;5052568;28;20439;-64
2022/06/09 06:16:22;;;;;;;34.28;16.80;;;28.60;99.90;;;;;;5053649;28;20029;-64
2022/06/09 06:18:49;;;;;;;15.27;9.02;;;28.50;99.90;;;;;;5051506;28;20094;-64
2022/06/09 06:21:17;;;;;;;17.38;9.05;;;28.40;99.90;;;;;;5053595;28;20107;-65
2022/06/09 06:23:45;;;;;;;18.77;10.93;;;28.20;99.90;;;;;;5054905;28;20021;-65
2022/06/09 06:26:12;;;;;;;25.83;13.77;;;28.20;99.90;;;;;;5052732;28;20474;-65
2022/06/09 06:28:39;;;;;;;21.98;12.65;;;28.10;99.90;;;;;;5049562;28;20035;-64
2022/06/09 06:31:06;;;;;;;20.08;11.35;;;28.20;99.90;;;;;;5051768;28;20041;-64
2022/06/09 06:33:33;;;;;;;18.15;10.05;;;28.20;99.90;;;;;;5051951;28;20060;-64
2022/06/09 06:35:59;;;;;;;32.55;15.13;;;28.10;99.90;;;;;;5053275;28;20445;-64
2022/06/09 06:38:27;;;;;;;30.85;13.57;;;28.00;99.90;;;;;;5054130;28;20107;-66
2022/06/09 06:40:54;;;;;;;24.50;11.75;;;27.90;99.90;;;;;;5054456;28;20035;-65
2022/06/09 06:43:22;;;;;;;27.95;14.30;;;27.70;99.90;;;;;;5048941;28;20083;-64
2022/06/09 06:45:49;;;;;;;27.95;12.02;;;27.60;99.90;;;;;;5052155;28;20390;-63
2022/06/09 06:48:16;;;;;;;26.67;11.32;;;27.50;99.90;;;;;;5053534;28;20504;-63
2022/06/09 06:50:43;;;;;;;22.63;9.75;;;27.40;99.90;;;;;;5053908;28;20086;-62
2022/06/09 06:53:12;;;;;;;29.88;12.07;;;27.30;99.90;;;;;;5050261;28;20017;-63
2022/06/09 06:55:43;;;;;;;19.13;9.30;;;27.30;99.90;;;;;;5051356;28;20021;-65
2022/06/09 06:58:09;;;;;;;29.27;9.70;;;27.20;99.90;;;;;;5051944;28;20053;-65
2022/06/09 07:00:37;;;;;;;12.63;7.13;;;26.90;99.90;;;;;;5053455;28;20063;-64
2022/06/09 07:03:04;;;;;;;12.75;6.32;;;26.80;99.90;;;;;;5050663;28;20532;-65
2022/06/09 07:05:31;;;;;;;15.25;6.82;;;26.60;99.90;;;;;;5053845;28;20033;-64
2022/06/09 07:07:58;;;;;;;15.77;5.22;;;26.50;99.90;;;;;;5052179;28;20557;-64
2022/06/09 07:10:25;;;;;;;11.57;4.15;;;26.30;99.90;;;;;;5053071;28;20025;-66
2022/06/09 07:12:52;;;;;;;6.53;3.50;;;26.20;99.90;;;;;;5052968;28;20478;-66
2022/06/09 07:15:19;;;;;;;7.05;3.53;;;26.10;99.90;;;;;;5053063;28;20108;-66
2022/06/09 07:17:46;;;;;;;7.45;3.60;;;26.10;99.90;;;;;;5050315;28;20032;-64
2022/06/09 07:20:14;;;;;;;7.35;3.65;;;26.00;99.90;;;;;;5043745;28;20111;-65
2022/06/09 07:22:41;;;;;;;7.00;3.45;;;26.00;99.90;;;;;;5054007;28;20033;-65
2022/06/09 07:25:11;;;;;;;6.90;3.10;;;26.00;99.90;;;;;;5054662;28;20032;-63
2022/06/09 07:27:38;;;;;;;3.85;2.95;;;25.90;99.90;;;;;;5054119;28;20029;-66
2022/06/09 07:30:06;;;;;;;6.03;3.30;;;26.00;99.90;;;;;;5054124;28;20032;-64
2022/06/09 07:32:33;;;;;;;9.07;3.75;;;26.00;99.90;;;;;;5051813;28;20032;-64
2022/06/09 07:35:00;;;;;;;7.97;4.15;;;26.00;99.90;;;;;;5051574;28;20032;-64
2022/06/09 07:37:26;;;;;;;7.97;4.05;;;26.00;99.90;;;;;;5054340;28;20466;-65
2022/06/09 07:39:53;;;;;;;11.93;4.80;;;26.00;99.90;;;;;;5054532;28;20461;-65
2022/06/09 07:42:20;;;;;;;13.85;5.32;;;26.00;99.90;;;;;;5051372;28;20025;-65
2022/06/09 07:44:47;;;;;;;9.30;4.03;;;26.00;99.90;;;;;;5034240;28;20021;-64
2022/06/09 07:47:16;;;;;;;9.63;3.38;;;25.90;99.90;;;;;;5050248;28;20049;-65
2022/06/09 07:49:42;;;;;;;8.23;3.85;;;25.80;99.90;;;;;;5050352;28;20037;-64
2022/06/09 07:52:09;;;;;;;10.05;2.85;;;25.70;99.90;;;;;;5051796;28;20025;-64
2022/06/09 07:54:36;;;;;;;4.55;2.35;;;25.70;99.90;;;;;;5054284;28;20238;-63
2022/06/09 07:57:03;;;;;;;7.68;2.92;;;25.80;99.90;;;;;;5052010;28;20029;-64
2022/06/09 07:59:30;;;;;;;5.60;2.92;;;25.80;99.90;;;;;;5053268;28;20453;-65
2022/06/09 08:01:57;;;;;;;6.10;2.70;;;25.80;99.90;;;;;;5052716;28;20029;-69
2022/06/09 08:04:23;;;;;;;6.03;2.85;;;25.90;99.90;;;;;;5050649;28;20029;-67
2022/06/09 08:06:50;;;;;;;5.60;2.53;;;25.80;99.90;;;;;;5051659;28;20462;-62
2022/06/09 08:09:17;;;;;;;7.47;2.53;;;25.70;99.90;;;;;;5045691;28;20071;-64
2022/06/09 08:11:45;;;;;;;4.07;2.20;;;25.70;99.90;;;;;;5037659;28;20083;-62
2022/06/09 08:14:12;;;;;;;6.88;2.38;;;25.70;99.90;;;;;;5051777;28;20037;-63
2022/06/09 08:16:39;;;;;;;5.25;2.50;;;25.80;99.90;;;;;;5053803;28;20023;-63
2022/06/09 08:19:07;;;;;;;5.03;2.20;;;25.80;99.90;;;;;;5046175;28;20035;-63
2022/06/09 08:21:33;;;;;;;6.28;2.55;;;25.80;99.90;;;;;;5039383;28;20030;-64
2022/06/09 08:24:00;;;;;;;3.47;2.30;;;25.80;99.90;;;;;;5043899;28;20397;-64
2022/06/09 08:26:27;;;;;;;3.35;2.35;;;25.90;99.90;;;;;;5043904;28;20459;-63
2022/06/09 08:28:55;;;;;;;2.97;1.67;;;25.90;99.90;;;;;;5051568;28;20071;-64
2022/06/09 08:31:22;;;;;;;4.88;2.40;;;25.80;99.90;;;;;;5049065;28;20041;-63
2022/06/09 08:33:48;;;;;;;2.58;1.50;;;25.80;99.90;;;;;;5047935;28;20025;-64
2022/06/09 08:36:15;;;;;;;3.65;1.60;;;25.80;99.90;;;;;;5051093;28;20025;-64
2022/06/09 08:38:42;;;;;;;3.35;1.80;;;25.80;99.90;;;;;;5051088;28;20037;-64
2022/06/09 08:41:48;;;;;;;3.80;1.80;;;25.90;99.90;;;;;;5049551;28;20123;-67
2022/06/09 08:44:36;;;;;;;7.95;2.80;;;26.00;99.90;;;;;;5048938;28;20045;-65
2022/06/09 08:47:19;;;;;;;5.80;2.08;;;25.90;99.90;;;;;;5019747;28;20119;-63
2022/06/09 08:49:50;;;;;;;6.00;2.53;;;25.90;99.90;;;;;;5117581;22;20116;-63
2022/06/09 08:52:25;;;;;;;5.63;2.30;;;25.90;99.90;;;;;;5107531;28;20091;-65
2022/06/09 08:54:55;;;;;;;3.22;2.17;;;25.80;99.90;;;;;;5112258;28;20046;-64
2022/06/09 08:57:33;;;;;;;6.20;3.22;;;25.90;99.90;;;;;;5110197;28;20327;-64
2022/06/09 09:00:01;;;;;;;11.13;5.72;;;25.90;99.90;;;;;;5112186;28;20479;-63
2022/06/09 09:02:33;;;;;;;13.00;6.18;;;25.90;99.90;;;;;;5110011;28;20031;-65
2022/06/09 09:05:06;;;;;;;;;;;26.00;99.90;;;;;;5113708;28;20070;-64
2022/06/09 09:07:44;;;;;;;11.57;7.07;;;26.00;99.90;;;;;;5112156;28;20379;-65
2022/06/09 09:10:16;;;;;;;11.75;8.50;;;26.00;99.90;;;;;;5114077;28;20050;-64
2022/06/09 09:12:48;;;;;;;12.52;7.93;;;26.00;99.90;;;;;;5096585;28;20045;-63
2022/06/09 09:15:17;;;;;;;13.88;10.40;;;26.00;99.90;;;;;;5088845;28;20027;-65
2022/06/09 09:17:56;;;;;;;18.00;12.77;;;26.10;99.90;;;;;;5092172;28;20024;-63
2022/06/09 09:20:26;;;;;;;26.33;15.80;;;26.10;99.90;;;;;;5089676;28;20043;-63
2022/06/09 09:23:05;;;;;;;29.13;17.77;;;26.10;99.90;;;;;;5085991;28;20020;-64
2022/06/09 09:25:42;;;;;;;27.33;18.17;;;26.10;99.90;;;;;;5093571;28;20489;-65
2022/06/09 09:28:20;;;;;;;23.67;18.10;;;26.00;99.90;;;;;;5089364;28;20020;-64
2022/06/09 09:30:52;;;;;;;24.38;18.38;;;25.80;99.90;;;;;;5107202;22;20032;-63
2022/06/09 09:33:20;;;;;;;23.67;17.45;;;25.80;99.90;;;;;;5055799;28;20044;-69
2022/06/09 09:35:53;;;;;;;23.02;15.02;;;25.70;99.90;;;;;;5055145;28;20037;-65
2022/06/09 09:38:20;;;;;;;;;;;25.60;99.90;;;;;;5056902;28;20112;-65
2022/06/09 09:40:50;;;;;;;48.75;19.25;;;25.50;99.90;;;;;;5053257;28;19927;-63
2022/06/09 09:43:23;;;;;;;27.17;13.32;;;25.50;99.90;;;;;;5054902;28;20025;-66
2022/06/09 09:45:53;;;;;;;18.55;9.23;;;25.40;99.90;;;;;;5055022;28;20378;-66
2022/06/09 09:48:20;;;;;;;10.23;8.77;;;25.30;99.90;;;;;;5058960;28;20020;-65
2022/06/09 09:50:49;;;;;;;12.57;8.20;;;25.30;99.90;;;;;;5061084;28;20029;-64
2022/06/09 09:53:18;;;;;;;10.07;7.03;;;25.30;99.90;;;;;;5058405;28;20422;-64
2022/06/09 09:56:03;;;;;;;10.95;7.53;;;25.20;99.90;;;;;;5060965;28;20025;-65
2022/06/09 09:58:36;;;;;;;10.70;9.00;;;25.30;99.90;;;;;;5059018;28;20405;-64
2022/06/09 10:01:23;;;;;;;11.45;6.78;;;25.30;99.90;;;;;;5055774;28;20101;-65
2022/06/09 10:09:39;;;;;;;8.48;6.05;;;25.30;99.90;;;;;;5052146;28;20033;-66
2022/06/09 10:12:10;;;;;;;8.38;5.57;;;25.20;99.90;;;;;;5048030;28;20030;-66
2022/06/09 10:14:44;;;;;;;14.55;6.13;;;25.20;99.90;;;;;;5043858;28;20033;-65
2022/06/09 10:17:39;;;;;;;13.57;5.90;;;25.20;99.90;;;;;;5043023;28;20382;-64
2022/06/09 10:20:08;;;;;;;8.35;5.90;;;25.30;99.90;;;;;;5045445;28;20052;-63
2022/06/09 10:22:38;;;;;;;6.78;5.32;;;25.20;99.90;;;;;;5043299;28;20037;-64
2022/06/09 10:25:16;;;;;;;6.22;5.28;;;25.30;99.90;;;;;;5041789;28;20025;-64
2022/06/09 10:27:45;;;;;;;11.63;5.88;;;25.20;99.90;;;;;;5043075;28;20018;-62
2022/06/09 10:30:20;;;;;;;12.25;5.57;;;25.20;99.90;;;;;;5048574;28;20025;-66
2022/06/09 10:32:55;;;;;;;7.75;5.07;;;25.20;99.90;;;;;;5046727;28;20048;-62
2022/06/09 10:35:34;;;;;;;15.90;5.18;;;25.10;99.90;;;;;;5035461;28;20033;-63
2022/06/09 10:38:17;;;;;;;5.53;4.15;;;25.00;99.90;;;;;;5040787;28;20402;-66
2022/06/09 10:40:49;;;;;;;10.65;6.63;;;25.00;99.90;;;;;;5042759;28;20044;-64
2022/06/09 10:43:16;;;;;;;9.02;6.13;;;25.00;99.90;;;;;;5039465;28;20046;-63
2022/06/09 10:45:49;;;;;;;12.27;7.25;;;25.00;99.90;;;;;;5049810;28;20293;-63
2022/06/09 10:57:14;;;;;;;384.88;342.35;;;24.90;99.90;;;;;;5039057;28;20120;-65
2022/06/09 10:59:50;;;;;;;355.65;316.90;;;25.00;99.90;;;;;;5042612;28;20083;-67
2022/06/09 11:02:21;;;;;;;321.73;286.52;;;24.90;99.90;;;;;;5042854;28;20517;-63
2022/06/09 11:04:51;;;;;;;263.35;235.25;;;25.00;99.90;;;;;;5038568;28;20022;-66
2022/06/09 11:07:22;;;;;;;145.32;130.57;;;25.00;99.90;;;;;;5043106;28;20075;-67
2022/06/09 11:10:08;;;;;;;137.63;123.60;;;25.00;99.90;;;;;;5038307;28;20458;-65
2022/06/09 11:12:54;;;;;;;61.00;54.78;;;25.00;99.90;;;;;;5042365;28;20033;-64
2022/06/09 11:15:26;;;;;;;52.63;46.90;;;25.00;99.90;;;;;;5040370;28;20475;-66
2022/06/09 11:18:06;;;;;;;42.90;35.90;;;25.10;99.90;;;;;;5035014;28;20043;-66
2022/06/09 11:20:46;;;;;;;31.05;26.00;;;25.10;99.90;;;;;;5034265;28;20096;-67
2022/06/09 11:23:34;;;;;;;22.33;16.38;;;25.20;99.90;;;;;;5039877;28;20078;-66
2022/06/09 11:26:12;;;;;;;43.42;29.73;;;25.30;99.90;;;;;;5053797;28;20025;-66
2022/06/09 11:28:54;;;;;;;29.67;18.10;;;25.20;99.90;;;;;;5051981;28;20051;-68
2022/06/09 11:31:32;;;;;;;25.13;15.30;;;25.20;99.90;;;;;;5051793;28;20513;-67
2022/06/09 11:34:08;;;;;;;22.70;12.60;;;25.20;99.90;;;;;;5045783;28;20028;-67
2022/06/09 11:36:55;;;;;;;32.13;14.50;;;25.20;99.90;;;;;;5054350;28;20031;-67
2022/06/09 11:39:25;;;;;;;21.13;11.52;;;25.20;99.90;;;;;;5048162;28;20055;-69
2022/06/09 11:42:00;;;;;;;21.55;10.65;;;25.20;99.90;;;;;;5044705;28;20036;-68
2022/06/09 11:44:32;;;;;;;23.98;11.60;;;25.20;99.90;;;;;;5053831;28;20094;-69
2022/06/09 11:47:05;;;;;;;25.40;13.77;;;25.20;99.90;;;;;;5034676;28;20030;-68
2022/06/09 11:49:38;;;;;;;25.77;14.18;;;25.20;99.90;;;;;;5034029;28;20033;-67
2022/06/09 11:52:09;;;;;;;20.92;10.95;;;25.30;99.90;;;;;;5034351;28;20033;-68
2022/06/09 11:54:38;;;;;;;17.42;9.90;;;25.40;99.90;;;;;;5049856;28;20041;-68
2022/06/09 11:57:34;;;;;;;14.10;7.97;;;25.30;99.90;;;;;;5047579;28;20437;-67
2022/06/09 12:00:08;;;;;;;11.18;6.38;;;25.30;99.90;;;;;;5053060;28;20045;-67
2022/06/09 12:02:55;;;;;;;11.75;6.13;;;25.20;99.90;;;;;;5053846;28;20029;-68
2022/06/09 12:05:54;;;;;;;10.35;4.50;;;25.20;99.90;;;;;;5040952;28;20056;-67
2022/06/09 12:08:42;;;;;;;7.55;4.35;;;25.20;99.90;;;;;;5054076;28;20033;-68
2022/06/09 12:11:20;;;;;;;6.65;4.13;;;25.20;99.90;;;;;;5049325;28;20017;-67
2022/06/09 12:13:55;;;;;;;5.88;4.07;;;25.20;99.90;;;;;;5052696;28;20105;-67
2022/06/09 12:16:33;;;;;;;10.48;4.97;;;25.20;99.90;;;;;;5053889;28;20024;-67
2022/06/09 12:19:13;;;;;;;7.32;4.53;;;25.20;99.90;;;;;;5039898;28;20021;-67
2022/06/09 12:21:44;;;;;;;14.23;4.63;;;25.20;99.90;;;;;;5033864;28;20029;-68
2022/06/09 12:24:20;;;;;;;6.15;4.55;;;25.10;99.90;;;;;;5045031;28;20026;-66
2022/06/09 12:26:55;;;;;;;6.85;3.78;;;25.20;99.90;;;;;;5052983;28;20044;-66
2022/06/09 12:30:02;;;;;;;7.43;4.47;;;25.20;99.90;;;;;;5038376;28;20078;-68
2022/06/09 12:32:48;;;;;;;11.73;5.47;;;25.30;99.90;;;;;;5048937;28;20036;-67
2022/06/09 12:35:26;;;;;;;9.45;5.30;;;25.30;99.90;;;;;;5049459;28;20061;-67
2022/06/09 12:37:57;;;;;;;9.48;4.55;;;25.30;99.90;;;;;;5054038;28;20036;-68
2022/06/09 12:40:31;;;;;;;7.03;4.35;;;25.30;99.90;;;;;;5046164;28;20025;-69
2022/06/09 12:43:03;;;;;;;6.55;4.80;;;25.30;99.90;;;;;;5038011;28;20029;-70
2022/06/09 12:45:36;;;;;;;14.43;4.90;;;25.20;99.90;;;;;;5042194;28;20394;-67
2022/06/09 12:48:10;;;;;;;7.97;5.63;;;25.20;99.90;;;;;;5044529;28;20616;-67
2022/06/09 12:50:40;;;;;;;15.20;7.22;;;25.20;99.90;;;;;;5054230;28;20022;-68
2022/06/09 12:53:07;;;;;;;13.23;8.95;;;25.10;99.90;;;;;;5040666;28;20029;-67
2022/06/09 12:55:39;;;;;;;15.43;10.13;;;25.10;99.90;;;;;;5047472;28;20475;-67
2022/06/09 12:58:10;;;;;;;16.73;12.57;;;25.10;99.90;;;;;;5037398;28;20061;-68
2022/06/09 13:00:45;;;;;;;19.65;14.10;;;25.20;99.90;;;;;;5037377;28;20035;-65
2022/06/09 13:03:23;;;;;;;19.92;14.85;;;25.20;99.90;;;;;;5044402;28;20025;-67
2022/06/09 13:05:50;;;;;;;17.20;15.15;;;25.20;99.90;;;;;;5047671;28;20037;-64
2022/06/09 13:08:28;;;;;;;22.25;16.00;;;25.20;99.90;;;;;;5045424;28;20021;-68
2022/06/09 13:11:03;;;;;;;22.83;17.85;;;25.20;99.90;;;;;;5027125;28;20367;-68
2022/06/09 13:13:42;;;;;;;22.98;14.05;;;25.20;99.90;;;;;;5045625;28;20031;-66
2022/06/09 13:16:24;;;;;;;15.27;12.02;;;25.20;99.90;;;;;;5047323;28;20021;-66
2022/06/09 13:19:03;;;;;;;12.90;11.50;;;25.20;99.90;;;;;;5047405;28;20018;-67
2022/06/09 13:21:37;;;;;;;16.08;9.32;;;25.20;99.90;;;;;;5044547;28;20151;-65